sensor_id;sensor_type;location;lat;lon;timestamp;noise_LAeq;noise_LA_min;noise_LA_max;noise_LA01;noise_LA95
59284;Laerm;45056;47.602;9.886;2024-03-02T00:01:51;44.00;37.12;57.62;;
59284;Laerm;45056;47.602;9.886;2024-03-02T00:04:21;42.80;37.12;57.62;;
59284;Laerm;45056;47.602;9.886;2024-03-02T00:06:51;41.46;37.32;47.28;;
59284;Laerm;45056;47.602;9.886;2024-03-02T00:09:21;41.89;35.66;52.97;;
59284;Laerm;45056;47.602;9.886;2024-03-02T00:11:49;45.09;35.66;60.67;;
59284;Laerm;45056;47.602;9.886;2024-03-02T00:14:17;40.25;35.94;48.02;;
59284;Laerm;45056;47.602;9.886;2024-03-02T00:16:45;42.56;36.45;54.79;;
59284;Laerm;45056;47.602;9.886;2024-03-02T00:19:13;40.77;35.94;46.07;;
59284;Laerm;45056;47.602;9.886;2024-03-02T00:21:43;40.33;36.91;50.38;;
59284;Laerm;45056;47.602;9.886;2024-03-02T00:24:21;40.45;36.45;53.04;;
59284;Laerm;45056;47.602;9.886;2024-03-02T00:26:53;40.71;36.69;49.19;;
59284;Laerm;45056;47.602;9.886;2024-03-02T00:29:21;40.02;35.86;48.49;;
59284;Laerm;45056;47.602;9.886;2024-03-02T00:31:49;43.90;38.21;58.21;;
59284;Laerm;45056;47.602;9.886;2024-03-02T00:34:17;44.04;37.12;56.84;;
59284;Laerm;45056;47.602;9.886;2024-03-02T00:36:47;41.60;37.32;51.45;;
59284;Laerm;45056;47.602;9.886;2024-03-02T00:39:16;42.58;37.32;55.81;;
59284;Laerm;45056;47.602;9.886;2024-03-02T00:41:44;42.34;37.52;56.68;;
59284;Laerm;45056;47.602;9.886;2024-03-02T00:44:13;41.43;37.52;50.89;;
59284;Laerm;45056;47.602;9.886;2024-03-02T00:46:43;48.11;37.12;68.04;;
59284;Laerm;45056;47.602;9.886;2024-03-02T00:49:18;42.47;36.69;53.12;;
59284;Laerm;45056;47.602;9.886;2024-03-02T00:51:52;42.76;37.88;58.28;;
59284;Laerm;45056;47.602;9.886;2024-03-02T00:54:22;41.88;37.12;53.56;;
59284;Laerm;45056;47.602;9.886;2024-03-02T00:56:51;48.02;36.20;65.32;;
59284;Laerm;45056;47.602;9.886;2024-03-02T00:59:22;40.36;36.69;44.47;;
59284;Laerm;45056;47.602;9.886;2024-03-02T01:01:50;43.83;37.12;56.06;;
59284;Laerm;45056;47.602;9.886;2024-03-02T01:04:18;41.37;36.45;52.79;;
59284;Laerm;45056;47.602;9.886;2024-03-02T01:06:46;40.27;36.20;43.49;;
59284;Laerm;45056;47.602;9.886;2024-03-02T01:09:16;40.98;36.45;52.62;;
59284;Laerm;45056;47.602;9.886;2024-03-02T01:11:44;40.36;36.69;43.04;;
59284;Laerm;45056;47.602;9.886;2024-03-02T01:14:12;42.19;36.69;56.19;;
59284;Laerm;45056;47.602;9.886;2024-03-02T01:16:40;40.21;34.31;55.77;;
59284;Laerm;45056;47.602;9.886;2024-03-02T01:19:08;41.78;35.04;57.58;;
59284;Laerm;45056;47.602;9.886;2024-03-02T01:21:36;39.01;35.04;42.16;;
59284;Laerm;45056;47.602;9.886;2024-03-02T01:24:04;38.94;34.69;43.09;;
59284;Laerm;45056;47.602;9.886;2024-03-02T01:26:34;38.71;34.31;42.22;;
59284;Laerm;45056;47.602;9.886;2024-03-02T01:29:02;39.05;35.04;43.86;;
59284;Laerm;45056;47.602;9.886;2024-03-02T01:31:30;41.16;35.04;54.86;;
59284;Laerm;45056;47.602;9.886;2024-03-02T01:33:58;39.47;34.31;43.72;;
59284;Laerm;45056;47.602;9.886;2024-03-02T01:36:25;42.51;35.04;57.52;;
59284;Laerm;45056;47.602;9.886;2024-03-02T01:38:53;42.60;35.66;55.92;;
59284;Laerm;45056;47.602;9.886;2024-03-02T01:41:21;40.00;35.36;42.59;;
59284;Laerm;45056;47.602;9.886;2024-03-02T01:43:51;40.04;35.01;47.70;;
59284;Laerm;45056;47.602;9.886;2024-03-02T01:46:19;42.08;35.04;54.29;;
59284;Laerm;45056;47.602;9.886;2024-03-02T01:48:47;38.63;35.04;42.09;;
59284;Laerm;45056;47.602;9.886;2024-03-02T01:51:15;39.80;35.04;46.64;;
59284;Laerm;45056;47.602;9.886;2024-03-02T01:53:43;40.70;34.69;56.74;;
59284;Laerm;45056;47.602;9.886;2024-03-02T01:56:11;40.70;35.04;53.83;;
59284;Laerm;45056;47.602;9.886;2024-03-02T01:58:39;41.36;34.69;56.90;;
59284;Laerm;45056;47.602;9.886;2024-03-02T02:01:09;44.34;34.31;57.16;;
59284;Laerm;45056;47.602;9.886;2024-03-02T02:03:37;39.76;34.69;49.16;;
59284;Laerm;45056;47.602;9.886;2024-03-02T02:06:05;39.86;34.31;42.93;;
59284;Laerm;45056;47.602;9.886;2024-03-02T02:08:33;39.95;35.36;43.14;;
59284;Laerm;45056;47.602;9.886;2024-03-02T02:11:02;40.22;35.36;50.13;;
59284;Laerm;45056;47.602;9.886;2024-03-02T02:13:30;38.71;34.31;42.76;;
59284;Laerm;45056;47.602;9.886;2024-03-02T02:16:05;41.05;34.69;55.11;;
59284;Laerm;45056;47.602;9.886;2024-03-02T02:18:35;38.35;33.44;40.71;;
59284;Laerm;45056;47.602;9.886;2024-03-02T02:21:03;38.55;34.69;44.12;;
59284;Laerm;45056;47.602;9.886;2024-03-02T02:23:33;43.07;34.31;58.13;;
59284;Laerm;45056;47.602;9.886;2024-03-02T02:26:01;39.16;35.04;42.53;;
59284;Laerm;45056;47.602;9.886;2024-03-02T02:28:29;38.89;34.69;42.53;;
59284;Laerm;45056;47.602;9.886;2024-03-02T02:30:57;40.69;35.04;57.00;;
59284;Laerm;45056;47.602;9.886;2024-03-02T02:33:26;39.97;36.20;42.53;;
59284;Laerm;45056;47.602;9.886;2024-03-02T02:35:54;38.97;35.04;42.35;;
59284;Laerm;45056;47.602;9.886;2024-03-02T02:38:22;38.23;33.90;40.71;;
59284;Laerm;45056;47.602;9.886;2024-03-02T02:40:52;38.18;34.31;40.89;;
59284;Laerm;45056;47.602;9.886;2024-03-02T02:43:20;38.57;34.31;42.93;;
59284;Laerm;45056;47.602;9.886;2024-03-02T02:45:48;41.22;35.04;55.55;;
59284;Laerm;45056;47.602;9.886;2024-03-02T02:48:16;38.88;35.36;44.69;;
59284;Laerm;45056;47.602;9.886;2024-03-02T02:50:44;40.76;34.31;57.53;;
59284;Laerm;45056;47.602;9.886;2024-03-02T02:53:12;38.41;34.31;42.59;;
59284;Laerm;45056;47.602;9.886;2024-03-02T02:55:40;39.12;35.66;43.76;;
59284;Laerm;45056;47.602;9.886;2024-03-02T02:58:11;39.84;36.20;42.82;;
59284;Laerm;45056;47.602;9.886;2024-03-02T03:00:40;44.84;36.20;56.50;;
59284;Laerm;45056;47.602;9.886;2024-03-02T03:03:08;39.16;34.69;43.54;;
59284;Laerm;45056;47.602;9.886;2024-03-02T03:05:36;38.46;34.69;44.62;;
59284;Laerm;45056;47.602;9.886;2024-03-02T03:08:04;39.79;35.04;45.89;;
59284;Laerm;45056;47.602;9.886;2024-03-02T03:10:32;44.29;37.32;56.45;;
59284;Laerm;45056;47.602;9.886;2024-03-02T03:13:00;41.48;36.45;52.13;;
59284;Laerm;45056;47.602;9.886;2024-03-02T03:15:30;39.66;35.04;56.46;;
59284;Laerm;45056;47.602;9.886;2024-03-02T03:17:58;38.77;35.04;43.58;;
59284;Laerm;45056;47.602;9.886;2024-03-02T03:20:26;38.55;34.69;41.68;;
59284;Laerm;45056;47.602;9.886;2024-03-02T03:22:54;39.94;35.04;43.90;;
59284;Laerm;45056;47.602;9.886;2024-03-02T03:25:22;39.38;35.01;49.03;;
59284;Laerm;45056;47.602;9.886;2024-03-02T03:27:50;40.04;36.56;44.47;;
59284;Laerm;45056;47.602;9.886;2024-03-02T03:30:19;41.60;35.94;55.07;;
59284;Laerm;45056;47.602;9.886;2024-03-02T03:32:48;38.87;35.66;42.35;;
59284;Laerm;45056;47.602;9.886;2024-03-02T03:35:16;39.72;35.36;42.93;;
59284;Laerm;45056;47.602;9.886;2024-03-02T03:37:45;41.48;36.45;52.79;;
59284;Laerm;45056;47.602;9.886;2024-03-02T03:40:13;39.21;34.69;45.04;;
59284;Laerm;45056;47.602;9.886;2024-03-02T03:42:41;41.34;35.36;49.94;;
59284;Laerm;45056;47.602;9.886;2024-03-02T03:45:09;43.38;35.66;56.82;;
59284;Laerm;45056;47.602;9.886;2024-03-02T03:47:37;43.41;35.94;58.03;;
59284;Laerm;45056;47.602;9.886;2024-03-02T03:50:08;42.71;37.32;55.82;;
59284;Laerm;45056;47.602;9.886;2024-03-02T03:52:36;42.42;35.31;53.48;;
59284;Laerm;45056;47.602;9.886;2024-03-02T03:55:06;41.46;35.04;54.67;;
59284;Laerm;45056;47.602;9.886;2024-03-02T03:57:34;39.75;35.04;43.29;;
59284;Laerm;45056;47.602;9.886;2024-03-02T04:00:03;42.70;35.94;56.31;;
59284;Laerm;45056;47.602;9.886;2024-03-02T04:02:31;43.30;35.66;56.23;;
59284;Laerm;45056;47.602;9.886;2024-03-02T04:04:59;41.17;35.04;51.08;;
59284;Laerm;45056;47.602;9.886;2024-03-02T04:07:29;39.38;35.66;42.76;;
59284;Laerm;45056;47.602;9.886;2024-03-02T04:09:57;40.60;35.66;51.93;;
59284;Laerm;45056;47.602;9.886;2024-03-02T04:12:25;41.90;36.20;53.39;;
59284;Laerm;45056;47.602;9.886;2024-03-02T04:14:53;41.60;36.20;53.84;;
59284;Laerm;45056;47.602;9.886;2024-03-02T04:17:21;41.22;34.69;56.14;;
59284;Laerm;45056;47.602;9.886;2024-03-02T04:19:48;39.58;34.31;43.09;;
59284;Laerm;45056;47.602;9.886;2024-03-02T04:22:17;41.52;36.20;53.53;;
59284;Laerm;45056;47.602;9.886;2024-03-02T04:24:46;38.98;34.69;41.82;;
59284;Laerm;45056;47.602;9.886;2024-03-02T04:27:14;43.21;35.36;57.61;;
59284;Laerm;45056;47.602;9.886;2024-03-02T04:29:42;39.07;34.69;45.36;;
59284;Laerm;45056;47.602;9.886;2024-03-02T04:32:10;43.43;36.69;58.25;;
59284;Laerm;45056;47.602;9.886;2024-03-02T04:34:38;40.33;36.69;42.88;;
59284;Laerm;45056;47.602;9.886;2024-03-02T04:37:06;42.25;37.70;52.03;;
59284;Laerm;45056;47.602;9.886;2024-03-02T04:39:34;42.11;36.91;51.61;;
59284;Laerm;45056;47.602;9.886;2024-03-02T04:42:04;49.43;37.52;67.24;;
59284;Laerm;45056;47.602;9.886;2024-03-02T04:44:32;44.74;37.32;57.26;;
59284;Laerm;45056;47.602;9.886;2024-03-02T04:47:00;43.25;37.32;53.89;;
59284;Laerm;45056;47.602;9.886;2024-03-02T04:49:28;47.59;35.94;62.33;;
59284;Laerm;45056;47.602;9.886;2024-03-02T04:51:57;43.92;36.20;58.48;;
59284;Laerm;45056;47.602;9.886;2024-03-02T04:54:25;41.67;36.69;49.88;;
59284;Laerm;45056;47.602;9.886;2024-03-02T04:56:53;42.40;36.20;53.06;;
59284;Laerm;45056;47.602;9.886;2024-03-02T04:59:22;41.21;36.69;53.90;;
59284;Laerm;45056;47.602;9.886;2024-03-02T05:01:50;49.39;37.87;63.24;;
59284;Laerm;45056;47.602;9.886;2024-03-02T05:04:18;56.17;37.52;67.89;;
59284;Laerm;45056;47.602;9.886;2024-03-02T05:06:46;43.30;37.88;56.12;;
59284;Laerm;45056;47.602;9.886;2024-03-02T05:09:19;41.49;36.20;52.59;;
59284;Laerm;45056;47.602;9.886;2024-03-02T05:11:47;40.54;36.45;44.39;;
59284;Laerm;45056;47.602;9.886;2024-03-02T05:14:43;41.84;36.91;55.48;;
59284;Laerm;45056;47.602;9.886;2024-03-02T05:17:11;50.21;36.91;66.92;;
59284;Laerm;45056;47.602;9.886;2024-03-02T05:19:39;39.90;35.94;43.99;;
59284;Laerm;45056;47.602;9.886;2024-03-02T05:22:07;46.23;36.45;63.00;;
59284;Laerm;45056;47.602;9.886;2024-03-02T05:24:35;40.38;35.94;46.57;;
59284;Laerm;45056;47.602;9.886;2024-03-02T05:27:03;46.00;37.52;58.81;;
59284;Laerm;45056;47.602;9.886;2024-03-02T05:29:33;41.51;36.69;50.56;;
59284;Laerm;45056;47.602;9.886;2024-03-02T05:32:02;41.94;37.12;55.15;;
59284;Laerm;45056;47.602;9.886;2024-03-02T05:34:30;43.77;35.04;55.11;;
59284;Laerm;45056;47.602;9.886;2024-03-02T05:36:59;45.19;37.52;59.42;;
59284;Laerm;45056;47.602;9.886;2024-03-02T05:39:27;43.90;36.20;57.41;;
59284;Laerm;45056;47.602;9.886;2024-03-02T05:41:55;45.79;36.45;58.76;;
59284;Laerm;45056;47.602;9.886;2024-03-02T05:44:23;42.61;36.20;55.39;;
59284;Laerm;45056;47.602;9.886;2024-03-02T05:46:51;45.33;36.20;58.37;;
59284;Laerm;45056;47.602;9.886;2024-03-02T05:49:21;42.03;36.91;53.27;;
59284;Laerm;45056;47.602;9.886;2024-03-02T05:51:49;43.45;36.69;53.82;;
59284;Laerm;45056;47.602;9.886;2024-03-02T05:54:17;45.25;38.95;59.04;;
59284;Laerm;45056;47.602;9.886;2024-03-02T05:56:45;44.83;37.32;56.20;;
59284;Laerm;45056;47.602;9.886;2024-03-02T05:59:14;45.92;37.52;58.58;;
59284;Laerm;45056;47.602;9.886;2024-03-02T06:01:45;48.02;37.12;57.73;;
59284;Laerm;45056;47.602;9.886;2024-03-02T06:04:14;45.62;36.69;61.99;;
59284;Laerm;45056;47.602;9.886;2024-03-02T06:06:44;43.82;38.37;53.79;;
59284;Laerm;45056;47.602;9.886;2024-03-02T06:09:12;48.91;38.67;65.73;;
59284;Laerm;45056;47.602;9.886;2024-03-02T06:11:41;46.59;39.35;59.77;;
59284;Laerm;45056;47.602;9.886;2024-03-02T06:14:09;44.58;38.21;59.56;;
59284;Laerm;45056;47.602;9.886;2024-03-02T06:16:37;45.72;38.21;58.17;;
59284;Laerm;45056;47.602;9.886;2024-03-02T06:19:05;43.29;38.21;55.86;;
59284;Laerm;45056;47.602;9.886;2024-03-02T06:21:33;45.74;38.21;67.94;;
59284;Laerm;45056;47.602;9.886;2024-03-02T06:24:03;46.31;39.21;60.35;;
59284;Laerm;45056;47.602;9.886;2024-03-02T06:26:32;44.35;37.88;56.55;;
59284;Laerm;45056;47.602;9.886;2024-03-02T06:29:00;42.23;37.12;48.57;;
59284;Laerm;45056;47.602;9.886;2024-03-02T06:31:29;45.71;38.52;55.92;;
59284;Laerm;45056;47.602;9.886;2024-03-02T06:33:57;43.72;38.05;57.22;;
59284;Laerm;45056;47.602;9.886;2024-03-02T06:36:25;45.68;38.95;56.72;;
59284;Laerm;45056;47.602;9.886;2024-03-02T06:38:53;46.77;38.52;56.04;;
59284;Laerm;45056;47.602;9.886;2024-03-02T06:41:23;44.44;37.52;57.32;;
59284;Laerm;45056;47.602;9.886;2024-03-02T06:43:51;44.19;37.12;54.15;;
59284;Laerm;45056;47.602;9.886;2024-03-02T06:46:26;46.58;38.67;58.33;;
59284;Laerm;45056;47.602;9.886;2024-03-02T06:48:54;44.71;38.52;58.36;;
59284;Laerm;45056;47.602;9.886;2024-03-02T06:51:21;46.29;38.21;59.15;;
59284;Laerm;45056;47.602;9.886;2024-03-02T06:53:50;46.92;38.52;57.62;;
59284;Laerm;45056;47.602;9.886;2024-03-02T06:56:17;46.06;38.37;62.90;;
59284;Laerm;45056;47.602;9.886;2024-03-02T06:58:47;45.25;38.05;57.15;;
59284;Laerm;45056;47.602;9.886;2024-03-02T07:01:15;49.29;40.62;58.51;;
59284;Laerm;45056;47.602;9.886;2024-03-02T07:03:43;45.71;39.68;59.28;;
59284;Laerm;45056;47.602;9.886;2024-03-02T07:06:11;46.76;38.81;58.49;;
59284;Laerm;45056;47.602;9.886;2024-03-02T07:08:39;48.10;38.95;60.81;;
59284;Laerm;45056;47.602;9.886;2024-03-02T07:11:07;49.49;40.62;63.00;;
59284;Laerm;45056;47.602;9.886;2024-03-02T07:13:35;46.07;39.92;56.46;;
59284;Laerm;45056;47.602;9.886;2024-03-02T07:16:05;47.44;40.53;60.83;;
59284;Laerm;45056;47.602;9.886;2024-03-02T07:18:54;47.10;39.21;57.79;;
59284;Laerm;45056;47.602;9.886;2024-03-02T07:21:23;45.88;38.05;56.92;;
59284;Laerm;45056;47.602;9.886;2024-03-02T07:23:51;47.86;40.13;61.72;;
59284;Laerm;45056;47.602;9.886;2024-03-02T07:26:19;48.29;39.70;60.93;;
59284;Laerm;45056;47.602;9.886;2024-03-02T07:28:48;46.14;39.92;57.23;;
59284;Laerm;45056;47.602;9.886;2024-03-02T07:31:18;46.57;39.68;56.84;;
59284;Laerm;45056;47.602;9.886;2024-03-02T07:33:46;47.18;40.89;57.29;;
59284;Laerm;45056;47.602;9.886;2024-03-02T07:36:15;48.17;40.23;58.66;;
59284;Laerm;45056;47.602;9.886;2024-03-02T07:38:43;46.46;40.23;56.32;;
59284;Laerm;45056;47.602;9.886;2024-03-02T07:41:12;48.71;38.95;62.09;;
59284;Laerm;45056;47.602;9.886;2024-03-02T07:43:40;46.93;41.53;59.05;;
59284;Laerm;45056;47.602;9.886;2024-03-02T07:46:08;47.75;40.98;57.96;;
59284;Laerm;45056;47.602;9.886;2024-03-02T07:48:38;47.21;41.06;61.90;;
59284;Laerm;45056;47.602;9.886;2024-03-02T07:51:06;47.27;41.06;57.94;;
59284;Laerm;45056;47.602;9.886;2024-03-02T07:53:34;47.03;40.80;54.93;;
59284;Laerm;45056;47.602;9.886;2024-03-02T07:56:04;47.84;41.55;56.44;;
59284;Laerm;45056;47.602;9.886;2024-03-02T07:58:33;49.15;42.22;58.85;;
59284;Laerm;45056;47.602;9.886;2024-03-02T08:01:02;49.92;42.88;59.94;;
59284;Laerm;45056;47.602;9.886;2024-03-02T08:03:30;47.50;40.23;60.72;;
59284;Laerm;45056;47.602;9.886;2024-03-02T08:06:00;48.67;39.08;67.87;;
59284;Laerm;45056;47.602;9.886;2024-03-02T08:08:28;46.88;40.80;67.91;;
59284;Laerm;45056;47.602;9.886;2024-03-02T08:10:56;47.08;40.23;60.38;;
59284;Laerm;45056;47.602;9.886;2024-03-02T08:13:24;47.75;41.53;61.49;;
59284;Laerm;45056;47.602;9.886;2024-03-02T08:15:52;48.46;41.75;59.18;;
59284;Laerm;45056;47.602;9.886;2024-03-02T08:18:20;47.36;40.03;66.11;;
59284;Laerm;45056;47.602;9.886;2024-03-02T08:20:49;47.67;42.22;55.44;;
59284;Laerm;45056;47.602;9.886;2024-03-02T08:23:18;46.89;40.89;55.81;;
59284;Laerm;45056;47.602;9.886;2024-03-02T08:25:46;47.01;40.62;58.66;;
59284;Laerm;45056;47.602;9.886;2024-03-02T08:28:15;46.85;40.33;55.56;;
59284;Laerm;45056;47.602;9.886;2024-03-02T08:30:43;47.15;39.81;56.89;;
59284;Laerm;45056;47.602;9.886;2024-03-02T08:33:11;47.16;41.06;57.75;;
59284;Laerm;45056;47.602;9.886;2024-03-02T08:35:39;47.19;40.33;55.14;;
59284;Laerm;45056;47.602;9.886;2024-03-02T08:38:07;48.57;41.75;56.82;;
59284;Laerm;45056;47.602;9.886;2024-03-02T08:40:37;46.61;40.13;55.99;;
59284;Laerm;45056;47.602;9.886;2024-03-02T08:43:05;46.06;40.80;55.24;;
59284;Laerm;45056;47.602;9.886;2024-03-02T08:45:33;47.50;41.14;57.64;;
59284;Laerm;45056;47.602;9.886;2024-03-02T08:48:03;47.29;39.34;59.91;;
59284;Laerm;45056;47.602;9.886;2024-03-02T08:50:31;47.30;41.53;59.53;;
59284;Laerm;45056;47.602;9.886;2024-03-02T08:52:59;48.39;41.06;58.11;;
59284;Laerm;45056;47.602;9.886;2024-03-02T08:55:27;46.22;40.62;57.98;;
59284;Laerm;45056;47.602;9.886;2024-03-02T08:57:57;48.36;41.06;60.44;;
59284;Laerm;45056;47.602;9.886;2024-03-02T09:00:25;50.16;41.22;58.81;;
59284;Laerm;45056;47.602;9.886;2024-03-02T09:02:54;48.81;40.53;58.88;;
59284;Laerm;45056;47.602;9.886;2024-03-02T09:05:22;48.86;41.61;61.25;;
59284;Laerm;45056;47.602;9.886;2024-03-02T09:07:50;47.33;40.71;57.01;;
59284;Laerm;45056;47.602;9.886;2024-03-02T09:10:18;48.16;40.23;56.40;;
59284;Laerm;45056;47.602;9.886;2024-03-02T09:12:46;47.72;42.16;56.61;;
59284;Laerm;45056;47.602;9.886;2024-03-02T09:15:16;48.98;42.53;59.85;;
59284;Laerm;45056;47.602;9.886;2024-03-02T09:17:44;47.96;41.68;57.47;;
59284;Laerm;45056;47.602;9.886;2024-03-02T09:20:12;47.76;40.62;56.95;;
59284;Laerm;45056;47.602;9.886;2024-03-02T09:22:41;47.71;42.03;64.09;;
59284;Laerm;45056;47.602;9.886;2024-03-02T09:25:09;48.71;41.11;64.48;;
59284;Laerm;45056;47.602;9.886;2024-03-02T09:27:37;47.01;41.30;57.86;;
59284;Laerm;45056;47.602;9.886;2024-03-02T09:30:09;46.94;41.46;55.98;;
59284;Laerm;45056;47.602;9.886;2024-03-02T09:32:39;47.67;42.47;56.47;;
59284;Laerm;45056;47.602;9.886;2024-03-02T09:35:08;47.53;41.06;58.56;;
59284;Laerm;45056;47.602;9.886;2024-03-02T09:37:36;46.56;39.70;57.36;;
59284;Laerm;45056;47.602;9.886;2024-03-02T09:40:05;47.62;41.22;56.67;;
59284;Laerm;45056;47.602;9.886;2024-03-02T09:42:34;47.39;41.46;54.95;;
59284;Laerm;45056;47.602;9.886;2024-03-02T09:45:05;46.63;40.62;62.41;;
59284;Laerm;45056;47.602;9.886;2024-03-02T09:47:33;46.82;40.98;57.94;;
59284;Laerm;45056;47.602;9.886;2024-03-02T09:50:03;47.81;41.82;61.09;;
59284;Laerm;45056;47.602;9.886;2024-03-02T09:52:33;47.80;41.53;56.02;;
59284;Laerm;45056;47.602;9.886;2024-03-02T09:55:03;47.11;41.75;54.22;;
59284;Laerm;45056;47.602;9.886;2024-03-02T09:57:32;48.29;41.75;58.13;;
59284;Laerm;45056;47.602;9.886;2024-03-02T10:00:00;48.96;42.53;57.91;;
59284;Laerm;45056;47.602;9.886;2024-03-02T10:02:28;50.22;42.88;59.28;;
59284;Laerm;45056;47.602;9.886;2024-03-02T10:04:56;48.40;42.76;56.73;;
59284;Laerm;45056;47.602;9.886;2024-03-02T10:07:26;48.00;42.71;56.76;;
59284;Laerm;45056;47.602;9.886;2024-03-02T10:09:54;48.37;42.59;57.72;;
59284;Laerm;45056;47.602;9.886;2024-03-02T10:12:22;49.32;42.82;59.04;;
59284;Laerm;45056;47.602;9.886;2024-03-02T10:15:03;48.68;42.76;59.01;;
59284;Laerm;45056;47.602;9.886;2024-03-02T10:17:34;46.42;40.96;58.79;;
59284;Laerm;45056;47.602;9.886;2024-03-02T10:20:23;49.01;41.82;60.93;;
59284;Laerm;45056;47.602;9.886;2024-03-02T10:22:53;46.92;41.61;57.88;;
59284;Laerm;45056;47.602;9.886;2024-03-02T10:25:31;48.07;42.22;63.08;;
59284;Laerm;45056;47.602;9.886;2024-03-02T10:28:01;48.19;41.96;57.71;;
59284;Laerm;45056;47.602;9.886;2024-03-02T10:30:29;51.29;41.46;71.28;;
59284;Laerm;45056;47.602;9.886;2024-03-02T10:32:57;49.13;42.53;59.03;;
59284;Laerm;45056;47.602;9.886;2024-03-02T10:35:26;49.35;41.89;59.59;;
59284;Laerm;45056;47.602;9.886;2024-03-02T10:37:56;48.49;42.29;57.41;;
59284;Laerm;45056;47.602;9.886;2024-03-02T10:40:27;52.58;42.29;70.23;;
59284;Laerm;45056;47.602;9.886;2024-03-02T10:42:56;48.12;43.00;59.27;;
59284;Laerm;45056;47.602;9.886;2024-03-02T10:45:25;50.63;41.06;67.47;;
59284;Laerm;45056;47.602;9.886;2024-03-02T10:47:53;49.72;41.53;61.97;;
59284;Laerm;45056;47.602;9.886;2024-03-02T10:50:21;47.41;40.23;56.76;;
59284;Laerm;45056;47.602;9.886;2024-03-02T10:52:49;49.10;42.09;61.35;;
59284;Laerm;45056;47.602;9.886;2024-03-02T10:55:19;49.58;41.06;59.86;;
59284;Laerm;45056;47.602;9.886;2024-03-02T10:57:52;47.44;41.75;61.22;;
59284;Laerm;45056;47.602;9.886;2024-03-02T11:00:25;50.43;41.82;59.56;;
59284;Laerm;45056;47.602;9.886;2024-03-02T11:03:04;55.64;41.75;69.94;;
59284;Laerm;45056;47.602;9.886;2024-03-02T11:05:38;60.87;43.04;70.21;;
59284;Laerm;45056;47.602;9.886;2024-03-02T11:08:14;48.37;41.68;57.11;;
59284;Laerm;45056;47.602;9.886;2024-03-02T11:10:51;48.79;41.61;60.39;;
59284;Laerm;45056;47.602;9.886;2024-03-02T11:13:27;49.28;42.09;60.70;;
59284;Laerm;45056;47.602;9.886;2024-03-02T11:16:05;48.45;41.61;58.32;;
59284;Laerm;45056;47.602;9.886;2024-03-02T11:18:34;49.31;40.62;66.80;;
59284;Laerm;45056;47.602;9.886;2024-03-02T11:21:04;49.14;42.09;59.51;;
59284;Laerm;45056;47.602;9.886;2024-03-02T11:23:34;48.19;42.03;56.08;;
59284;Laerm;45056;47.602;9.886;2024-03-02T11:26:20;50.62;40.53;68.44;;
59284;Laerm;45056;47.602;9.886;2024-03-02T11:28:50;48.73;40.71;61.80;;
59284;Laerm;45056;47.602;9.886;2024-03-02T11:31:18;49.76;41.14;59.90;;
59284;Laerm;45056;47.602;9.886;2024-03-02T11:33:46;48.09;40.71;58.36;;
59284;Laerm;45056;47.602;9.886;2024-03-02T11:36:16;49.53;40.43;60.69;;
59284;Laerm;45056;47.602;9.886;2024-03-02T11:38:45;48.72;41.89;57.64;;
59284;Laerm;45056;47.602;9.886;2024-03-02T11:41:14;49.73;40.98;59.35;;
59284;Laerm;45056;47.602;9.886;2024-03-02T11:43:44;49.72;42.16;59.85;;
59284;Laerm;45056;47.602;9.886;2024-03-02T11:46:12;48.78;42.42;60.28;;
59284;Laerm;45056;47.602;9.886;2024-03-02T11:48:40;50.61;40.43;65.81;;
59284;Laerm;45056;47.602;9.886;2024-03-02T11:51:08;47.18;40.62;57.50;;
59284;Laerm;45056;47.602;9.886;2024-03-02T11:53:39;47.69;40.71;59.21;;
59284;Laerm;45056;47.602;9.886;2024-03-02T11:56:09;51.00;43.49;62.31;;
59284;Laerm;45056;47.602;9.886;2024-03-02T11:58:40;48.17;41.22;61.49;;
59284;Laerm;45056;47.602;9.886;2024-03-02T12:01:10;49.11;41.68;58.49;;
59284;Laerm;45056;47.602;9.886;2024-03-02T12:03:40;47.13;40.62;55.11;;
59284;Laerm;45056;47.602;9.886;2024-03-02T12:06:09;49.95;43.19;66.02;;
59284;Laerm;45056;47.602;9.886;2024-03-02T12:08:37;48.89;41.61;59.23;;
59284;Laerm;45056;47.602;9.886;2024-03-02T12:11:05;51.28;40.98;64.58;;
59284;Laerm;45056;47.602;9.886;2024-03-02T12:13:34;49.25;41.89;60.09;;
59284;Laerm;45056;47.602;9.886;2024-03-02T12:16:02;49.01;43.19;59.37;;
59284;Laerm;45056;47.602;9.886;2024-03-02T12:18:32;49.02;40.53;64.67;;
59284;Laerm;45056;47.602;9.886;2024-03-02T12:21:00;49.17;41.38;58.80;;
59284;Laerm;45056;47.602;9.886;2024-03-02T12:23:31;49.02;40.23;60.37;;
59284;Laerm;45056;47.602;9.886;2024-03-02T12:25:59;47.79;40.53;57.37;;
59284;Laerm;45056;47.602;9.886;2024-03-02T12:28:27;49.17;42.29;58.25;;
59284;Laerm;45056;47.602;9.886;2024-03-02T12:30:55;49.12;40.89;57.66;;
59284;Laerm;45056;47.602;9.886;2024-03-02T12:33:23;47.44;41.22;58.68;;
59284;Laerm;45056;47.602;9.886;2024-03-02T12:35:53;50.37;40.33;80.97;;
59284;Laerm;45056;47.602;9.886;2024-03-02T12:38:21;47.24;40.89;56.90;;
59284;Laerm;45056;47.602;9.886;2024-03-02T12:40:52;46.83;39.92;57.22;;
59284;Laerm;45056;47.602;9.886;2024-03-02T12:43:20;49.35;41.22;62.96;;
59284;Laerm;45056;47.602;9.886;2024-03-02T12:45:50;50.78;42.47;64.21;;
59284;Laerm;45056;47.602;9.886;2024-03-02T12:48:18;49.86;41.75;59.77;;
59284;Laerm;45056;47.602;9.886;2024-03-02T12:50:46;49.95;40.33;62.77;;
59284;Laerm;45056;47.602;9.886;2024-03-02T12:53:16;48.22;41.82;57.00;;
59284;Laerm;45056;47.602;9.886;2024-03-02T12:55:45;50.05;41.30;64.29;;
59284;Laerm;45056;47.602;9.886;2024-03-02T12:58:21;46.94;40.03;57.47;;
59284;Laerm;45056;47.602;9.886;2024-03-02T13:00:49;50.03;41.38;61.95;;
59284;Laerm;45056;47.602;9.886;2024-03-02T13:03:18;49.01;40.80;62.11;;
59284;Laerm;45056;47.602;9.886;2024-03-02T13:05:48;47.31;40.62;57.74;;
59284;Laerm;45056;47.602;9.886;2024-03-02T13:08:19;47.39;40.98;57.87;;
59284;Laerm;45056;47.602;9.886;2024-03-02T13:10:47;48.17;41.06;62.71;;
59284;Laerm;45056;47.602;9.886;2024-03-02T13:13:15;48.49;39.81;60.29;;
59284;Laerm;45056;47.602;9.886;2024-03-02T13:15:44;47.69;40.03;61.42;;
59284;Laerm;45056;47.602;9.886;2024-03-02T13:18:12;47.58;40.71;57.18;;
59284;Laerm;45056;47.602;9.886;2024-03-02T13:20:40;46.93;41.75;55.27;;
59284;Laerm;45056;47.602;9.886;2024-03-02T13:23:08;48.16;40.43;59.67;;
59284;Laerm;45056;47.602;9.886;2024-03-02T13:25:38;50.31;41.22;65.18;;
59284;Laerm;45056;47.602;9.886;2024-03-02T13:28:06;48.94;41.68;59.71;;
59284;Laerm;45056;47.602;9.886;2024-03-02T13:30:35;50.59;41.89;64.73;;
59284;Laerm;45056;47.602;9.886;2024-03-02T13:33:04;48.14;41.82;57.19;;
59284;Laerm;45056;47.602;9.886;2024-03-02T13:35:32;50.02;41.96;65.00;;
59284;Laerm;45056;47.602;9.886;2024-03-02T13:38:00;61.94;42.03;83.16;;
59284;Laerm;45056;47.602;9.886;2024-03-02T13:40:28;47.57;42.03;58.00;;
59284;Laerm;45056;47.602;9.886;2024-03-02T13:42:59;47.59;42.29;57.55;;
59284;Laerm;45056;47.602;9.886;2024-03-02T13:45:27;47.37;41.30;56.31;;
59284;Laerm;45056;47.602;9.886;2024-03-02T13:47:55;48.13;41.82;56.97;;
59284;Laerm;45056;47.602;9.886;2024-03-02T13:50:26;47.58;41.11;57.03;;
59284;Laerm;45056;47.602;9.886;2024-03-02T13:52:56;50.10;41.68;61.45;;
59284;Laerm;45056;47.602;9.886;2024-03-02T13:55:24;47.84;41.46;57.20;;